• Join FlightAware (Why Join?)
  • Login
  • US Flag 
03:56PM EDT


 

Airport Tracker/Info


-or-


 

Live Flight TrackerFlight Track Log ✈ AWE1525 ✈ 31-Jul-2013 ✈ KSYR - KCLT

Flight Track Log - Related Links

Times and Time Zones

All times are in EDT time to prevent confusion due to time zone crossing. See the AWE1525 flight status page for this flight to view local times or setup timezone preferences in your user account.

Time Position Orientation Groundspeed Altitude Reporting Facility
EDT Latitude Longitude Course Direction KTS MPH feet Rate Location/Type
07:01PM 43.1072 -76.1433 232° Southwest 161 185 1,300  Level Boston Center
07:03PM 43.0675 -76.2119 232° Southwest 208 239 3,700 2,400 Climbing Boston Center
07:04PM 42.9708 -76.2972 213° Southwest 280 322 8,500 2,340 Climbing New York Center
07:05PM 42.9056 -76.3539 212° Southwest 280 322 10,100 1,320 Climbing New York Center
07:06PM 42.8342 -76.4128 211° Southwest 293 337 11,200 2,280 Climbing New York Center
07:07PM 42.7542 -76.4792 211° Southwest 317 365 14,700 2,820 Climbing New York Center
07:08PM 42.6761 -76.5428 211° Southwest 328 377 16,800 2,100 Climbing New York Center
07:10PM 42.5092 -76.6828 212° Southwest 351 404 21,100 2,100 Climbing New York Center
07:11PM 42.4222 -76.7533 211° Southwest 363 418 23,200 1,680 Climbing New York Center
07:12PM 42.3331 -76.8294 212° Southwest 371 427 24,600 1,440 Climbing New York Center
07:13PM 42.2397 -76.9050 211° Southwest 387 445 26,200 1,560 Climbing New York Center
07:14PM 42.1375 -76.9906 212° Southwest 387 445 27,800 1,560 Climbing New York Center
07:15PM 42.0417 -77.0681 211° Southwest 399 459 29,400 1,500 Climbing New York Center
07:16PM 41.9458 -77.1511 213° Southwest 410 472 30,800 1,680 Climbing New York Center
07:17PM 41.8497 -77.2308 212° Southwest 410 472 32,800 1,860 Climbing New York Center
07:18PM 41.7581 -77.3083 212° Southwest 405 466 34,600 1,500 Climbing New York Center
07:19PM 41.6664 -77.3825 211° Southwest 400 460 35,900 1,080 Climbing New York Center
07:20PM 41.5747 -77.4567 211° Southwest 400 460 36,800 720 Climbing New York Center
07:21PM 41.4831 -77.5333 212° Southwest 400 460 37,400 540 Climbing New York Center
07:22PM 41.3869 -77.6097 211° Southwest 400 460 37,900 180 Climbing New York Center
07:25PM 41.1772 -77.7803 211° Southwest 401 461 38,100 60 Climbing Cleveland Center
07:26PM 41.0792 -77.8614 212° Southwest 406 467 38,100  Level Cleveland Center
07:27PM 40.9789 -77.9400 211° Southwest 412 474 38,100  Level Cleveland Center
07:28PM 40.8892 -78.0342 218° Southwest 417 480 38,100  Level Cleveland Center
07:29PM 40.8189 -78.1467 230° Southwest 411 473 38,100  Level Cleveland Center
07:30PM 40.7439 -78.2592 229° Southwest 406 467 38,100  Level Cleveland Center
07:31PM 40.6711 -78.3739 230° Southwest 406 467 38,100  Level Cleveland Center
07:32PM 40.5983 -78.4858 229° Southwest 411 473 38,100  Level Cleveland Center
07:33PM 40.5253 -78.5972 229° Southwest 411 473 38,100  Level Cleveland Center
07:34PM 40.4542 -78.7086 230° Southwest 411 473 38,100  Level Cleveland Center
07:35PM 40.3808 -78.8169 228° Southwest 411 473 38,100  Level Cleveland Center
07:36PM 40.3094 -78.9306 231° Southwest 411 473 38,100  Level Cleveland Center
07:37PM 40.2381 -79.0411 230° Southwest 411 473 38,100  Level Cleveland Center
07:38PM 40.1644 -79.1458 227° Southwest 411 473 38,100  Level Cleveland Center
07:39PM 40.0928 -79.2561 230° Southwest 411 473 38,100  Level Cleveland Center
07:40PM 40.0231 -79.3631 230° Southwest 411 473 38,100  Level Cleveland Center
07:41PM 39.9514 -79.4728 230° Southwest 405 466 38,100  Level Cleveland Center
07:42PM 39.8772 -79.5822 229° Southwest 411 473 38,100  Level Cleveland Center
07:43PM 39.8031 -79.6914 229° Southwest 411 473 38,100  Level Cleveland Center
07:44PM 39.7308 -79.7975 229° Southwest 411 473 38,100  Level Cleveland Center
07:45PM 39.6608 -79.9036 229° Southwest 406 467 38,100  Level Cleveland Center
07:46PM 39.5842 -80.0119 227° Southwest 406 467 38,100  Level Cleveland Center
07:48PM 39.4292 -80.2325 228° Southwest 402 463 38,200  Climbing Indianapolis Center
07:49PM 39.3550 -80.3369 227° Southwest 397 457 38,200 -60 Level Indianapolis Center
07:50PM 39.2817 -80.4400 227° Southwest 389 448 38,100 -120 Descending Indianapolis Center
07:51PM 39.2100 -80.5417 228° Southwest 384 442 38,000  Descending Indianapolis Center
07:52PM 39.1231 -80.6617 227° Southwest 382 440 38,100  Climbing Indianapolis Center
07:53PM 39.0511 -80.7636 228° Southwest 383 441 38,100  Level Indianapolis Center
07:54PM 38.9778 -80.8656 227° Southwest 386 444 38,100  Level Indianapolis Center
07:55PM 38.9053 -80.9717 229° Southwest 393 452 38,100  Level Indianapolis Center
07:56PM 38.8319 -81.0781 229° Southwest 396 456 38,200  Climbing Indianapolis Center
07:57PM 38.7586 -81.1844 229° Southwest 396 456 38,100 -60 Descending Indianapolis Center
07:58PM 38.6844 -81.2903 228° Southwest 395 455 38,100 -60 Level Indianapolis Center
07:59PM 38.6097 -81.3964 228° Southwest 394 453 38,000 -900 Descending Indianapolis Center
08:00PM 38.5236 -81.4881 220° Southwest 399 459 36,300 -960 Descending Indianapolis Center
08:01PM 38.4097 -81.5258 195° South 422 486 36,100 -120 Descending Indianapolis Center
08:02PM 38.2950 -81.5611 194° South 423 487 36,100  Level Indianapolis Center
08:03PM 38.1650 -81.6025 194° South 400 460 36,100  Level Indianapolis Center
08:04PM 38.0542 -81.6367 194° South 405 466 36,100 -240 Level Indianapolis Center
08:05PM 37.9447 -81.6717 194° South 406 467 35,700 -840 Descending Indianapolis Center
08:06PM 37.8264 -81.7075 193° South 403 464 34,400 -1,320 Descending Indianapolis Center
08:07PM 37.7111 -81.7431 194° South 426 490 33,000 -1,380 Descending Indianapolis Center
08:08PM 37.5883 -81.7822 194° South 447 514 31,600 -1,380 Descending Indianapolis Center
08:09PM 37.4636 -81.8192 193° South 455 524 30,200 -1,380 Descending Indianapolis Center
08:10PM 37.3378 -81.8572 194° South 458 527 28,800 -1,020 Descending Indianapolis Center
08:11PM 37.2175 -81.8939 194° South 447 514 28,100 -360 Descending Indianapolis Center
08:12PM 37.0903 -81.9058 184° South 466 536 28,100 -300 Level Indianapolis Center
08:13PM 36.9392 -81.8917 176° South 464 534 27,600 -780 Descending Indianapolis Center
08:14PM 36.8125 -81.8625 170° South 463 533 26,600 -960 Descending Indianapolis Center
08:15PM 36.7058 -81.8406 171° South 464 534 25,800 -960 Descending Atlanta Center
08:16PM 36.5844 -81.8103 169° South 464 534 24,800 -900 Descending Atlanta Center
08:17PM 36.4631 -81.7825 170° South 448 516 24,100 -660 Descending Atlanta Center
08:18PM 36.3417 -81.7578 171° South 448 516 23,500 -1,500 Descending Atlanta Center
08:19PM 36.2242 -81.7275 168° South 443 510 21,100 -2,400 Descending Atlanta Center
08:20PM 36.1069 -81.7000 169° South 443 510 18,800 -2,460 Descending Atlanta Center
08:21PM 35.9897 -81.6753 170° South 425 489 16,200 -2,640 Descending Atlanta Center
08:22PM 35.8747 -81.6683 177° South 425 489 13,600 -2,400 Descending Atlanta Center
08:23PM 35.7661 -81.6664 179° South 403 464 11,500 -1,500 Descending Atlanta Center
08:24PM 35.6825 -81.6558 174° South 360 414 11,000 -300 Descending Atlanta Center
08:25PM 35.6044 -81.6047 152° Southeast 297 342 11,000  Level Atlanta Center
08:26PM 35.5589 -81.5167 122° Southeast 303 349 11,000 -420 Level Atlanta Center
08:27PM 35.5361 -81.4331 108° East 295 339 10,300 -1,260 Descending Atlanta Center
08:28PM 35.5447 -81.3383 84° East 245 282 8,500 -1,620 Descending Atlanta Center
08:29PM 35.5533 -81.2642 82° East 246 283 7,100 -840 Descending Atlanta Center
08:30PM 35.5594 -81.1667 86° East 240 276 6,800 -540 Descending Atlanta Center
08:31PM 35.5639 -81.0850 86° East 213 245 6,000 -720 Descending Atlanta Center
08:32PM 35.5706 -81.0183 83° East 198 228 5,400 -540 Descending Atlanta Center
08:33PM 35.5197 -80.9922 157° South 147 169 5,000 -240 Descending Atlanta Center
08:34PM 35.4781 -80.9911 179° South 173 199 5,000 -240 Level Atlanta Center
08:35PM 35.4258 -80.9881 177° South 174 200 4,600 -660 Descending Atlanta Center
08:36PM 35.3778 -80.9847 177° South 172 198 3,600 -900 Descending Atlanta Center
08:37PM 35.3297 -80.9789 174° South 172 198 2,800 -780 Descending Atlanta Center
08:38PM 35.2919 -80.9750 175° South 127 146 2,100 -720 Descending Atlanta Center
08:39PM 35.2606 -80.9739 178° South 118 136 1,500 -660 Descending Atlanta Center
08:41PM 35.2137 -80.9491 190° South  Level Estimated
08:48PM 35.2137 -80.9491 15° North  Level Estimated